sensor_id;sensor_type;location;lat;lon;timestamp;pressure;altitude;pressure_sealevel;temperature;humidity
54870;BME280;40756;-37.950;145.008;2024-03-08T00:00:15;102107.66;;;19.44;48.94
54870;BME280;40756;-37.950;145.008;2024-03-08T00:02:45;102106.62;;;19.98;48.28
54870;BME280;40756;-37.950;145.008;2024-03-08T00:05:15;102107.15;;;20.78;47.10
54870;BME280;40756;-37.950;145.008;2024-03-08T00:07:46;102107.39;;;21.16;46.67
54870;BME280;40756;-37.950;145.008;2024-03-08T00:10:16;102106.20;;;21.25;46.77
54870;BME280;40756;-37.950;145.008;2024-03-08T00:12:46;102104.62;;;21.05;45.81
54870;BME280;40756;-37.950;145.008;2024-03-08T00:15:17;102099.70;;;20.27;47.11
54870;BME280;40756;-37.950;145.008;2024-03-08T00:17:47;102099.41;;;20.44;46.94
54870;BME280;40756;-37.950;145.008;2024-03-08T00:20:17;102091.12;;;20.93;46.62
54870;BME280;40756;-37.950;145.008;2024-03-08T00:22:46;102091.00;;;19.91;47.89
54870;BME280;40756;-37.950;145.008;2024-03-08T00:25:16;102086.69;;;19.95;48.51
54870;BME280;40756;-37.950;145.008;2024-03-08T00:27:45;102082.22;;;20.33;47.62
54870;BME280;40756;-37.950;145.008;2024-03-08T00:30:15;102077.34;;;20.80;47.40
54870;BME280;40756;-37.950;145.008;2024-03-08T00:32:44;102074.32;;;21.01;46.70
54870;BME280;40756;-37.950;145.008;2024-03-08T00:35:14;102064.68;;;20.91;46.49
54870;BME280;40756;-37.950;145.008;2024-03-08T00:37:45;102056.07;;;21.43;45.77
54870;BME280;40756;-37.950;145.008;2024-03-08T00:40:15;102057.66;;;21.66;45.90
54870;BME280;40756;-37.950;145.008;2024-03-08T00:42:45;102056.67;;;21.15;45.62
54870;BME280;40756;-37.950;145.008;2024-03-08T00:45:14;102055.79;;;21.14;46.05
54870;BME280;40756;-37.950;145.008;2024-03-08T00:47:43;102055.18;;;20.09;47.42
54870;BME280;40756;-37.950;145.008;2024-03-08T00:50:13;102053.55;;;20.48;47.68
54870;BME280;40756;-37.950;145.008;2024-03-08T00:52:42;102049.57;;;20.95;47.69
54870;BME280;40756;-37.950;145.008;2024-03-08T00:55:12;102050.16;;;20.12;48.82
54870;BME280;40756;-37.950;145.008;2024-03-08T00:57:42;102042.87;;;21.00;47.41
54870;BME280;40756;-37.950;145.008;2024-03-08T01:00:12;102033.52;;;20.88;47.16
54870;BME280;40756;-37.950;145.008;2024-03-08T01:02:42;102030.58;;;21.09;46.42
54870;BME280;40756;-37.950;145.008;2024-03-08T01:05:13;102031.02;;;21.09;46.24
54870;BME280;40756;-37.950;145.008;2024-03-08T01:07:42;102031.60;;;21.36;45.88
54870;BME280;40756;-37.950;145.008;2024-03-08T01:10:12;102029.14;;;21.38;46.23
54870;BME280;40756;-37.950;145.008;2024-03-08T01:12:42;102032.86;;;21.26;44.82
54870;BME280;40756;-37.950;145.008;2024-03-08T01:15:11;102025.13;;;21.08;45.69
54870;BME280;40756;-37.950;145.008;2024-03-08T01:17:41;102019.91;;;21.11;45.64
54870;BME280;40756;-37.950;145.008;2024-03-08T01:20:10;102020.72;;;21.12;46.08
54870;BME280;40756;-37.950;145.008;2024-03-08T01:22:40;102026.20;;;21.66;45.02
54870;BME280;40756;-37.950;145.008;2024-03-08T01:25:09;102025.33;;;21.59;45.30
54870;BME280;40756;-37.950;145.008;2024-03-08T01:27:38;102022.51;;;21.81;44.68
54870;BME280;40756;-37.950;145.008;2024-03-08T01:30:09;102017.43;;;22.20;44.52
54870;BME280;40756;-37.950;145.008;2024-03-08T01:32:39;102013.22;;;21.85;44.62
54870;BME280;40756;-37.950;145.008;2024-03-08T01:35:09;102005.19;;;22.50;43.70
54870;BME280;40756;-37.950;145.008;2024-03-08T01:37:38;102008.64;;;20.93;45.48
54870;BME280;40756;-37.950;145.008;2024-03-08T01:40:09;102001.27;;;21.59;45.25
54870;BME280;40756;-37.950;145.008;2024-03-08T01:42:41;101999.66;;;22.08;44.20
54870;BME280;40756;-37.950;145.008;2024-03-08T01:45:10;102000.37;;;21.50;44.57
54870;BME280;40756;-37.950;145.008;2024-03-08T01:47:40;101998.36;;;21.66;44.87
54870;BME280;40756;-37.950;145.008;2024-03-08T01:50:10;101996.27;;;22.03;45.32
54870;BME280;40756;-37.950;145.008;2024-03-08T01:52:39;101988.32;;;21.83;45.75
54870;BME280;40756;-37.950;145.008;2024-03-08T01:55:09;101985.41;;;21.78;46.52
54870;BME280;40756;-37.950;145.008;2024-03-08T01:57:39;101978.55;;;22.39;44.72
54870;BME280;40756;-37.950;145.008;2024-03-08T02:00:09;101976.22;;;22.23;44.68
54870;BME280;40756;-37.950;145.008;2024-03-08T02:02:38;101966.44;;;22.67;44.38
54870;BME280;40756;-37.950;145.008;2024-03-08T02:05:11;101962.10;;;23.19;43.18
54870;BME280;40756;-37.950;145.008;2024-03-08T02:07:42;101963.79;;;21.76;45.40
54870;BME280;40756;-37.950;145.008;2024-03-08T02:10:12;101953.32;;;23.19;43.47
54870;BME280;40756;-37.950;145.008;2024-03-08T02:12:42;101950.64;;;23.00;43.40
54870;BME280;40756;-37.950;145.008;2024-03-08T02:15:12;101949.58;;;23.15;43.32
54870;BME280;40756;-37.950;145.008;2024-03-08T02:17:41;101944.56;;;23.56;42.93
54870;BME280;40756;-37.950;145.008;2024-03-08T02:20:11;101942.70;;;22.45;43.83
54870;BME280;40756;-37.950;145.008;2024-03-08T02:22:41;101943.29;;;23.09;42.85
54870;BME280;40756;-37.950;145.008;2024-03-08T02:25:10;101941.66;;;23.59;43.10
54870;BME280;40756;-37.950;145.008;2024-03-08T02:27:40;101940.17;;;23.34;42.88
54870;BME280;40756;-37.950;145.008;2024-03-08T02:30:10;101937.21;;;23.22;43.66
54870;BME280;40756;-37.950;145.008;2024-03-08T02:32:40;101928.32;;;23.47;42.30
54870;BME280;40756;-37.950;145.008;2024-03-08T02:35:09;101931.37;;;22.51;44.39
54870;BME280;40756;-37.950;145.008;2024-03-08T02:37:39;101924.76;;;23.33;43.40
54870;BME280;40756;-37.950;145.008;2024-03-08T02:40:10;101916.11;;;23.91;42.10
54870;BME280;40756;-37.950;145.008;2024-03-08T02:42:39;101914.58;;;23.35;42.29
54870;BME280;40756;-37.950;145.008;2024-03-08T02:45:09;101913.78;;;23.03;43.89
54870;BME280;40756;-37.950;145.008;2024-03-08T02:47:39;101911.14;;;24.02;42.53
54870;BME280;40756;-37.950;145.008;2024-03-08T02:50:10;101906.87;;;24.05;41.62
54870;BME280;40756;-37.950;145.008;2024-03-08T02:52:39;101905.40;;;23.98;41.62
54870;BME280;40756;-37.950;145.008;2024-03-08T02:55:09;101896.47;;;24.28;42.66
54870;BME280;40756;-37.950;145.008;2024-03-08T02:57:38;101891.95;;;24.80;41.54
54870;BME280;40756;-37.950;145.008;2024-03-08T03:00:09;101886.16;;;24.34;41.13
54870;BME280;40756;-37.950;145.008;2024-03-08T03:02:38;101882.95;;;24.45;40.43
54870;BME280;40756;-37.950;145.008;2024-03-08T03:05:08;101876.58;;;24.21;39.98
54870;BME280;40756;-37.950;145.008;2024-03-08T03:07:38;101873.48;;;25.22;39.64
54870;BME280;40756;-37.950;145.008;2024-03-08T03:10:09;101872.72;;;24.91;39.63
54870;BME280;40756;-37.950;145.008;2024-03-08T03:12:39;101864.55;;;24.96;38.81
54870;BME280;40756;-37.950;145.008;2024-03-08T03:15:09;101860.62;;;24.91;39.88
54870;BME280;40756;-37.950;145.008;2024-03-08T03:17:39;101858.78;;;24.31;40.40
54870;BME280;40756;-37.950;145.008;2024-03-08T03:20:10;101856.00;;;25.90;37.73
54870;BME280;40756;-37.950;145.008;2024-03-08T03:22:40;101850.27;;;25.96;37.45
54870;BME280;40756;-37.950;145.008;2024-03-08T03:25:10;101840.02;;;26.36;36.95
54870;BME280;40756;-37.950;145.008;2024-03-08T03:27:39;101837.97;;;26.47;36.54
54870;BME280;40756;-37.950;145.008;2024-03-08T03:30:09;101834.72;;;26.56;36.72
54870;BME280;40756;-37.950;145.008;2024-03-08T03:32:39;101823.19;;;26.53;36.57
54870;BME280;40756;-37.950;145.008;2024-03-08T03:35:08;101818.63;;;26.97;36.23
54870;BME280;40756;-37.950;145.008;2024-03-08T03:37:38;101812.88;;;26.13;36.31
54870;BME280;40756;-37.950;145.008;2024-03-08T03:40:09;101811.01;;;27.50;35.92
54870;BME280;40756;-37.950;145.008;2024-03-08T03:42:38;101804.62;;;27.19;35.51
54870;BME280;40756;-37.950;145.008;2024-03-08T03:45:08;101799.43;;;26.16;35.93
54870;BME280;40756;-37.950;145.008;2024-03-08T03:47:37;101790.10;;;27.51;35.24
54870;BME280;40756;-37.950;145.008;2024-03-08T03:50:08;101787.86;;;27.22;34.84
54870;BME280;40756;-37.950;145.008;2024-03-08T03:52:37;101777.90;;;26.99;35.45
54870;BME280;40756;-37.950;145.008;2024-03-08T03:55:08;101775.44;;;27.66;34.71
54870;BME280;40756;-37.950;145.008;2024-03-08T03:57:37;101770.24;;;27.64;35.00
54870;BME280;40756;-37.950;145.008;2024-03-08T04:00:08;101768.93;;;27.56;34.38
54870;BME280;40756;-37.950;145.008;2024-03-08T04:02:39;101761.57;;;26.29;35.77
54870;BME280;40756;-37.950;145.008;2024-03-08T04:05:11;101755.82;;;27.08;35.11
54870;BME280;40756;-37.950;145.008;2024-03-08T04:07:41;101751.20;;;27.77;35.06
54870;BME280;40756;-37.950;145.008;2024-03-08T04:10:11;101748.44;;;28.86;33.51
54870;BME280;40756;-37.950;145.008;2024-03-08T04:12:42;101745.63;;;27.57;33.47
54870;BME280;40756;-37.950;145.008;2024-03-08T04:15:13;101744.42;;;28.91;32.60
54870;BME280;40756;-37.950;145.008;2024-03-08T04:17:43;101735.33;;;27.95;33.56
54870;BME280;40756;-37.950;145.008;2024-03-08T04:20:13;101733.96;;;27.84;33.53
54870;BME280;40756;-37.950;145.008;2024-03-08T04:22:42;101729.87;;;28.02;33.19
54870;BME280;40756;-37.950;145.008;2024-03-08T04:25:12;101726.84;;;28.40;33.46
54870;BME280;40756;-37.950;145.008;2024-03-08T04:27:41;101724.38;;;27.72;33.82
54870;BME280;40756;-37.950;145.008;2024-03-08T04:30:12;101721.85;;;27.44;34.40
54870;BME280;40756;-37.950;145.008;2024-03-08T04:32:41;101714.56;;;26.76;34.76
54870;BME280;40756;-37.950;145.008;2024-03-08T04:35:11;101712.10;;;28.59;33.36
54870;BME280;40756;-37.950;145.008;2024-03-08T04:37:40;101704.39;;;27.54;34.06
54870;BME280;40756;-37.950;145.008;2024-03-08T04:40:11;101705.24;;;27.24;35.44
54870;BME280;40756;-37.950;145.008;2024-03-08T04:42:41;101700.94;;;27.76;34.74
54870;BME280;40756;-37.950;145.008;2024-03-08T04:45:12;101701.15;;;27.62;35.72
54870;BME280;40756;-37.950;145.008;2024-03-08T04:47:41;101698.61;;;28.34;34.90
54870;BME280;40756;-37.950;145.008;2024-03-08T04:50:11;101692.47;;;28.20;33.84
54870;BME280;40756;-37.950;145.008;2024-03-08T04:52:40;101693.71;;;29.18;33.55
54870;BME280;40756;-37.950;145.008;2024-03-08T04:55:10;101695.96;;;28.00;35.46
54870;BME280;40756;-37.950;145.008;2024-03-08T04:57:40;101697.98;;;27.60;36.01
54870;BME280;40756;-37.950;145.008;2024-03-08T05:00:11;101700.38;;;27.44;37.54
54870;BME280;40756;-37.950;145.008;2024-03-08T05:02:40;101698.20;;;28.15;37.08
54870;BME280;40756;-37.950;145.008;2024-03-08T05:05:10;101690.14;;;27.14;38.30
54870;BME280;40756;-37.950;145.008;2024-03-08T05:07:39;101683.46;;;26.71;38.50
54870;BME280;40756;-37.950;145.008;2024-03-08T05:10:09;101685.70;;;26.99;38.03
54870;BME280;40756;-37.950;145.008;2024-03-08T05:12:39;101681.33;;;28.16;35.83
54870;BME280;40756;-37.950;145.008;2024-03-08T05:15:09;101681.55;;;27.57;36.67
54870;BME280;40756;-37.950;145.008;2024-03-08T05:17:38;101681.33;;;25.94;38.10
54870;BME280;40756;-37.950;145.008;2024-03-08T05:20:09;101674.92;;;27.72;36.65
54870;BME280;40756;-37.950;145.008;2024-03-08T05:22:38;101669.03;;;27.40;37.04
54870;BME280;40756;-37.950;145.008;2024-03-08T05:25:08;101667.00;;;28.14;36.13
54870;BME280;40756;-37.950;145.008;2024-03-08T05:27:37;101657.37;;;28.29;35.39
54870;BME280;40756;-37.950;145.008;2024-03-08T05:30:08;101658.04;;;28.33;34.54
54870;BME280;40756;-37.950;145.008;2024-03-08T05:32:37;101655.72;;;28.62;34.45
54870;BME280;40756;-37.950;145.008;2024-03-08T05:35:07;101649.96;;;28.51;34.65
54870;BME280;40756;-37.950;145.008;2024-03-08T05:37:36;101640.56;;;29.36;33.48
54870;BME280;40756;-37.950;145.008;2024-03-08T05:40:06;101636.90;;;29.49;33.09
54870;BME280;40756;-37.950;145.008;2024-03-08T05:42:37;101635.42;;;29.78;32.07
54870;BME280;40756;-37.950;145.008;2024-03-08T05:45:08;101632.24;;;29.35;33.00
54870;BME280;40756;-37.950;145.008;2024-03-08T05:47:39;101634.88;;;30.32;31.90
54870;BME280;40756;-37.950;145.008;2024-03-08T05:50:09;101638.37;;;29.99;32.77
54870;BME280;40756;-37.950;145.008;2024-03-08T05:52:38;101640.91;;;29.43;32.65
54870;BME280;40756;-37.950;145.008;2024-03-08T05:55:08;101634.06;;;28.83;33.62
54870;BME280;40756;-37.950;145.008;2024-03-08T05:57:37;101629.99;;;29.38;33.16
54870;BME280;40756;-37.950;145.008;2024-03-08T06:00:08;101627.67;;;29.56;33.59
54870;BME280;40756;-37.950;145.008;2024-03-08T06:02:38;101623.31;;;29.18;33.73
54870;BME280;40756;-37.950;145.008;2024-03-08T06:05:08;101624.27;;;29.56;33.18
54870;BME280;40756;-37.950;145.008;2024-03-08T06:07:38;101627.29;;;28.38;33.81
54870;BME280;40756;-37.950;145.008;2024-03-08T06:10:09;101624.21;;;28.59;33.70
54870;BME280;40756;-37.950;145.008;2024-03-08T06:12:40;101621.35;;;28.79;33.98
54870;BME280;40756;-37.950;145.008;2024-03-08T06:15:11;101619.17;;;28.30;34.20
54870;BME280;40756;-37.950;145.008;2024-03-08T06:17:40;101616.45;;;28.40;34.90
54870;BME280;40756;-37.950;145.008;2024-03-08T06:20:10;101621.15;;;27.96;35.70
54870;BME280;40756;-37.950;145.008;2024-03-08T06:22:40;101617.94;;;28.91;35.83
54870;BME280;40756;-37.950;145.008;2024-03-08T06:25:10;101619.50;;;28.85;36.41
54870;BME280;40756;-37.950;145.008;2024-03-08T06:27:40;101619.55;;;28.58;37.22
54870;BME280;40756;-37.950;145.008;2024-03-08T06:30:10;101617.48;;;27.18;38.98
54870;BME280;40756;-37.950;145.008;2024-03-08T06:32:40;101617.05;;;28.22;38.16
54870;BME280;40756;-37.950;145.008;2024-03-08T06:35:09;101616.28;;;26.63;39.42
54870;BME280;40756;-37.950;145.008;2024-03-08T06:37:39;101615.47;;;27.48;38.60
54870;BME280;40756;-37.950;145.008;2024-03-08T06:40:09;101620.76;;;26.89;40.58
54870;BME280;40756;-37.950;145.008;2024-03-08T06:42:40;101617.88;;;26.55;40.54
54870;BME280;40756;-37.950;145.008;2024-03-08T06:45:10;101616.41;;;27.05;40.57
54870;BME280;40756;-37.950;145.008;2024-03-08T06:47:40;101617.48;;;28.20;39.46
54870;BME280;40756;-37.950;145.008;2024-03-08T06:50:10;101620.62;;;27.55;39.83
54870;BME280;40756;-37.950;145.008;2024-03-08T06:52:39;101622.73;;;27.05;39.69
54870;BME280;40756;-37.950;145.008;2024-03-08T06:55:09;101621.77;;;27.32;39.30
54870;BME280;40756;-37.950;145.008;2024-03-08T06:57:38;101625.75;;;27.70;38.81
54870;BME280;40756;-37.950;145.008;2024-03-08T07:00:10;101625.03;;;27.04;39.98
54870;BME280;40756;-37.950;145.008;2024-03-08T07:02:40;101622.52;;;26.67;40.62
54870;BME280;40756;-37.950;145.008;2024-03-08T07:05:10;101624.73;;;26.81;40.25
54870;BME280;40756;-37.950;145.008;2024-03-08T07:07:39;101628.54;;;26.02;41.52
54870;BME280;40756;-37.950;145.008;2024-03-08T07:10:09;101629.51;;;27.57;39.92
54870;BME280;40756;-37.950;145.008;2024-03-08T07:12:38;101629.42;;;26.84;40.59
54870;BME280;40756;-37.950;145.008;2024-03-08T07:15:08;101628.10;;;27.83;39.71
54870;BME280;40756;-37.950;145.008;2024-03-08T07:17:38;101627.63;;;26.25;41.57
54870;BME280;40756;-37.950;145.008;2024-03-08T07:20:08;101624.38;;;27.13;41.22
54870;BME280;40756;-37.950;145.008;2024-03-08T07:22:38;101615.81;;;26.93;40.75
54870;BME280;40756;-37.950;145.008;2024-03-08T07:25:08;101613.75;;;26.83;41.81
54870;BME280;40756;-37.950;145.008;2024-03-08T07:27:37;101611.49;;;27.02;41.43
54870;BME280;40756;-37.950;145.008;2024-03-08T07:30:08;101614.66;;;25.95;43.08
54870;BME280;40756;-37.950;145.008;2024-03-08T07:32:38;101616.00;;;26.47;42.90
54870;BME280;40756;-37.950;145.008;2024-03-08T07:35:08;101615.88;;;26.21;43.05
54870;BME280;40756;-37.950;145.008;2024-03-08T07:37:37;101614.52;;;26.61;42.95
54870;BME280;40756;-37.950;145.008;2024-03-08T07:40:08;101607.32;;;26.83;42.59
54870;BME280;40756;-37.950;145.008;2024-03-08T07:42:38;101603.66;;;26.67;42.65
54870;BME280;40756;-37.950;145.008;2024-03-08T07:45:09;101606.72;;;26.81;42.76
54870;BME280;40756;-37.950;145.008;2024-03-08T07:47:38;101609.20;;;26.42;43.60
54870;BME280;40756;-37.950;145.008;2024-03-08T07:50:08;101608.80;;;25.14;46.55
54870;BME280;40756;-37.950;145.008;2024-03-08T07:52:38;101608.14;;;25.87;46.28
54870;BME280;40756;-37.950;145.008;2024-03-08T07:55:09;101612.16;;;24.51;49.63
54870;BME280;40756;-37.950;145.008;2024-03-08T07:57:38;101616.13;;;24.85;49.43
54870;BME280;40756;-37.950;145.008;2024-03-08T08:00:08;101619.15;;;25.16;49.57
54870;BME280;40756;-37.950;145.008;2024-03-08T08:02:38;101618.46;;;25.50;48.74
54870;BME280;40756;-37.950;145.008;2024-03-08T08:05:08;101619.07;;;25.69;48.93
54870;BME280;40756;-37.950;145.008;2024-03-08T08:07:37;101614.06;;;26.27;48.08
54870;BME280;40756;-37.950;145.008;2024-03-08T08:10:08;101610.50;;;26.14;47.83
54870;BME280;40756;-37.950;145.008;2024-03-08T08:12:37;101609.73;;;24.77;50.73
54870;BME280;40756;-37.950;145.008;2024-03-08T08:15:07;101607.34;;;25.95;48.55
54870;BME280;40756;-37.950;145.008;2024-03-08T08:17:38;101609.12;;;25.87;48.20
54870;BME280;40756;-37.950;145.008;2024-03-08T08:20:08;101610.74;;;25.33;49.81
54870;BME280;40756;-37.950;145.008;2024-03-08T08:22:38;101607.97;;;25.35;50.00
54870;BME280;40756;-37.950;145.008;2024-03-08T08:25:08;101608.63;;;25.71;49.19
54870;BME280;40756;-37.950;145.008;2024-03-08T08:27:38;101609.76;;;25.69;49.29
54870;BME280;40756;-37.950;145.008;2024-03-08T08:30:08;101609.22;;;25.45;49.98
54870;BME280;40756;-37.950;145.008;2024-03-08T08:32:38;101608.85;;;25.83;49.17
54870;BME280;40756;-37.950;145.008;2024-03-08T08:35:08;101610.45;;;25.93;49.07
54870;BME280;40756;-37.950;145.008;2024-03-08T08:37:39;101609.32;;;25.72;49.09
54870;BME280;40756;-37.950;145.008;2024-03-08T08:40:09;101607.71;;;25.88;49.37
54870;BME280;40756;-37.950;145.008;2024-03-08T08:42:39;101607.74;;;25.92;49.16
54870;BME280;40756;-37.950;145.008;2024-03-08T08:45:09;101610.43;;;25.88;49.17
54870;BME280;40756;-37.950;145.008;2024-03-08T08:47:39;101613.85;;;25.73;49.81
54870;BME280;40756;-37.950;145.008;2024-03-08T08:50:09;101613.62;;;25.68;50.29
54870;BME280;40756;-37.950;145.008;2024-03-08T08:52:38;101611.78;;;25.44;51.01
54870;BME280;40756;-37.950;145.008;2024-03-08T08:55:08;101611.30;;;25.65;51.05
54870;BME280;40756;-37.950;145.008;2024-03-08T08:57:38;101612.77;;;24.99;52.19
54870;BME280;40756;-37.950;145.008;2024-03-08T09:00:08;101615.60;;;25.40;51.33
54870;BME280;40756;-37.950;145.008;2024-03-08T09:02:40;101618.36;;;25.35;51.06
54870;BME280;40756;-37.950;145.008;2024-03-08T09:05:10;101621.56;;;25.53;51.28
54870;BME280;40756;-37.950;145.008;2024-03-08T09:07:40;101626.56;;;25.42;51.13
54870;BME280;40756;-37.950;145.008;2024-03-08T09:10:10;101630.72;;;25.42;51.13
54870;BME280;40756;-37.950;145.008;2024-03-08T09:12:41;101637.29;;;25.15;51.17
54870;BME280;40756;-37.950;145.008;2024-03-08T09:15:10;101636.98;;;25.05;51.79
54870;BME280;40756;-37.950;145.008;2024-03-08T09:17:40;101639.79;;;25.06;52.05
54870;BME280;40756;-37.950;145.008;2024-03-08T09:20:11;101637.79;;;24.98;52.59
54870;BME280;40756;-37.950;145.008;2024-03-08T09:22:40;101642.49;;;25.16;52.78
54870;BME280;40756;-37.950;145.008;2024-03-08T09:25:12;101644.89;;;24.75;53.91
54870;BME280;40756;-37.950;145.008;2024-03-08T09:27:42;101645.15;;;25.28;53.52
54870;BME280;40756;-37.950;145.008;2024-03-08T09:30:12;101642.56;;;24.86;54.03
54870;BME280;40756;-37.950;145.008;2024-03-08T09:32:41;101643.73;;;25.43;53.15
54870;BME280;40756;-37.950;145.008;2024-03-08T09:35:11;101643.69;;;24.94;53.51
54870;BME280;40756;-37.950;145.008;2024-03-08T09:37:40;101647.50;;;25.03;53.65
54870;BME280;40756;-37.950;145.008;2024-03-08T09:40:10;101650.15;;;24.89;53.97
54870;BME280;40756;-37.950;145.008;2024-03-08T09:42:39;101655.49;;;24.98;53.44
54870;BME280;40756;-37.950;145.008;2024-03-08T09:45:11;101660.21;;;25.11;53.72
54870;BME280;40756;-37.950;145.008;2024-03-08T09:47:42;101662.76;;;24.60;53.68
54870;BME280;40756;-37.950;145.008;2024-03-08T09:50:12;101663.58;;;24.81;53.57
54870;BME280;40756;-37.950;145.008;2024-03-08T09:52:42;101665.44;;;24.72;53.63
54870;BME280;40756;-37.950;145.008;2024-03-08T09:55:12;101668.58;;;24.61;53.72
54870;BME280;40756;-37.950;145.008;2024-03-08T09:57:41;101676.05;;;24.48;54.01
54870;BME280;40756;-37.950;145.008;2024-03-08T10:00:14;101680.73;;;24.28;54.26
54870;BME280;40756;-37.950;145.008;2024-03-08T10:02:44;101677.36;;;24.32;53.89
54870;BME280;40756;-37.950;145.008;2024-03-08T10:05:14;101683.64;;;24.02;54.44
54870;BME280;40756;-37.950;145.008;2024-03-08T10:07:45;101685.84;;;24.40;54.38
54870;BME280;40756;-37.950;145.008;2024-03-08T10:10:14;101688.30;;;24.28;54.40
54870;BME280;40756;-37.950;145.008;2024-03-08T10:12:45;101695.30;;;24.27;54.25
54870;BME280;40756;-37.950;145.008;2024-03-08T10:15:21;101702.67;;;24.21;54.17
54870;BME280;40756;-37.950;145.008;2024-03-08T10:18:10;101702.57;;;24.25;54.16
54870;BME280;40756;-37.950;145.008;2024-03-08T10:21:07;101703.37;;;24.11;54.51
54870;BME280;40756;-37.950;145.008;2024-03-08T10:23:36;101705.69;;;23.93;54.81
54870;BME280;40756;-37.950;145.008;2024-03-08T10:26:14;101709.50;;;23.84;54.90
54870;BME280;40756;-37.950;145.008;2024-03-08T10:28:44;101714.88;;;23.80;54.83
54870;BME280;40756;-37.950;145.008;2024-03-08T10:31:14;101722.34;;;23.87;54.81
54870;BME280;40756;-37.950;145.008;2024-03-08T10:33:45;101728.19;;;24.16;54.81
54870;BME280;40756;-37.950;145.008;2024-03-08T10:36:15;101733.92;;;23.75;54.71
54870;BME280;40756;-37.950;145.008;2024-03-08T10:38:45;101729.64;;;23.58;55.02
54870;BME280;40756;-37.950;145.008;2024-03-08T10:41:20;101729.68;;;23.72;54.86
54870;BME280;40756;-37.950;145.008;2024-03-08T10:44:07;101731.03;;;23.72;54.58
54870;BME280;40756;-37.950;145.008;2024-03-08T10:46:54;101732.17;;;23.44;55.02
54870;BME280;40756;-37.950;145.008;2024-03-08T10:49:38;101735.59;;;23.88;54.66
54870;BME280;40756;-37.950;145.008;2024-03-08T10:52:08;101734.27;;;23.65;54.27
54870;BME280;40756;-37.950;145.008;2024-03-08T10:54:40;101733.04;;;23.51;54.51
54870;BME280;40756;-37.950;145.008;2024-03-08T10:57:11;101734.79;;;23.73;54.95
54870;BME280;40756;-37.950;145.008;2024-03-08T10:59:42;101736.53;;;23.47;54.60
54870;BME280;40756;-37.950;145.008;2024-03-08T11:02:13;101730.99;;;23.32;55.07
54870;BME280;40756;-37.950;145.008;2024-03-08T11:04:47;101734.84;;;23.11;56.00
54870;BME280;40756;-37.950;145.008;2024-03-08T11:07:17;101736.64;;;23.44;54.92
54870;BME280;40756;-37.950;145.008;2024-03-08T11:09:56;101738.24;;;23.25;54.95
54870;BME280;40756;-37.950;145.008;2024-03-08T11:12:27;101739.10;;;23.61;55.12
54870;BME280;40756;-37.950;145.008;2024-03-08T11:15:00;101739.80;;;23.14;55.55
54870;BME280;40756;-37.950;145.008;2024-03-08T11:18:08;101733.49;;;23.35;54.88
54870;BME280;40756;-37.950;145.008;2024-03-08T11:20:38;101727.38;;;23.19;54.93
54870;BME280;40756;-37.950;145.008;2024-03-08T11:23:07;101728.86;;;23.58;55.09
54870;BME280;40756;-37.950;145.008;2024-03-08T11:25:40;101729.87;;;23.27;55.25
54870;BME280;40756;-37.950;145.008;2024-03-08T11:28:14;101725.22;;;23.26;55.07
54870;BME280;40756;-37.950;145.008;2024-03-08T11:30:45;101725.39;;;23.43;55.57
54870;BME280;40756;-37.950;145.008;2024-03-08T11:33:15;101725.12;;;23.33;55.72
54870;BME280;40756;-37.950;145.008;2024-03-08T11:35:44;101727.70;;;23.16;55.76
54870;BME280;40756;-37.950;145.008;2024-03-08T11:38:14;101735.64;;;23.22;55.59
54870;BME280;40756;-37.950;145.008;2024-03-08T11:40:44;101739.00;;;23.35;55.81
54870;BME280;40756;-37.950;145.008;2024-03-08T11:43:15;101744.30;;;23.03;55.84
54870;BME280;40756;-37.950;145.008;2024-03-08T11:45:45;101743.21;;;23.45;55.34
54870;BME280;40756;-37.950;145.008;2024-03-08T11:48:15;101746.54;;;22.84;56.54
54870;BME280;40756;-37.950;145.008;2024-03-08T11:50:45;101747.86;;;23.24;55.87
54870;BME280;40756;-37.950;145.008;2024-03-08T11:53:14;101753.66;;;23.14;55.92
54870;BME280;40756;-37.950;145.008;2024-03-08T11:55:44;101748.78;;;23.15;55.91
54870;BME280;40756;-37.950;145.008;2024-03-08T11:58:14;101753.66;;;23.19;56.20
54870;BME280;40756;-37.950;145.008;2024-03-08T12:00:44;101748.97;;;23.16;56.04
54870;BME280;40756;-37.950;145.008;2024-03-08T12:03:14;101748.44;;;22.82;56.97
54870;BME280;40756;-37.950;145.008;2024-03-08T12:05:44;101750.28;;;23.13;57.06
54870;BME280;40756;-37.950;145.008;2024-03-08T12:08:13;101746.69;;;22.93;56.72
54870;BME280;40756;-37.950;145.008;2024-03-08T12:10:43;101744.84;;;23.45;56.72
54870;BME280;40756;-37.950;145.008;2024-03-08T12:13:12;101742.60;;;22.84;56.59
54870;BME280;40756;-37.950;145.008;2024-03-08T12:15:41;101739.63;;;22.91;56.31
54870;BME280;40756;-37.950;145.008;2024-03-08T12:18:12;101733.94;;;22.82;56.39
54870;BME280;40756;-37.950;145.008;2024-03-08T12:20:42;101733.63;;;22.80;56.42
54870;BME280;40756;-37.950;145.008;2024-03-08T12:23:16;101738.25;;;22.82;56.25
54870;BME280;40756;-37.950;145.008;2024-03-08T12:25:45;101736.69;;;22.91;54.32
54870;BME280;40756;-37.950;145.008;2024-03-08T12:28:15;101742.27;;;22.49;56.10
54870;BME280;40756;-37.950;145.008;2024-03-08T12:30:49;101741.79;;;23.04;55.94
54870;BME280;40756;-37.950;145.008;2024-03-08T12:33:19;101738.12;;;22.66;55.60
54870;BME280;40756;-37.950;145.008;2024-03-08T12:35:56;101738.57;;;22.68;55.64